Time;durP1;ratioP1;P1;durP2;ratioP2;P2;SDS_P1;SDS_P2;PMS_P1;PMS_P2;Temp;Humidity;BMP_temperature;BMP_pressure;BME280_temperature;BME280_humidity;BME280_pressure;Samples;Min_cycle;Max_cycle;Signal;HPM_P1;HPM_P2
2022/06/02 00:00:05;;;;;;;11.02;6.72;;;;;;;-149.78;100.00;50285.66;5059691;28;20069;-67
2022/06/02 00:03:10;;;;;;;14.02;8.15;;;;;;;-149.78;100.00;50283.69;5022146;28;20045;-67
2022/06/02 00:06:39;;;;;;;17.52;9.13;;;;;;;-149.78;100.00;50299.34;5029151;28;20059;-67
2022/06/02 00:09:37;;;;;;;16.20;8.38;;;;;;;-149.78;100.00;50248.50;5036299;28;20053;-67
2022/06/02 00:12:24;;;;;;;15.10;8.57;;;;;;;-149.78;100.00;50299.34;5040629;28;20079;-67
2022/06/02 00:15:25;;;;;;;15.95;8.52;;;;;;;-149.78;100.00;50279.78;5035970;28;20044;-67
2022/06/02 00:18:28;;;;;;;16.00;9.38;;;;;;;-149.78;100.00;50283.69;5025241;28;20044;-67
2022/06/02 00:21:24;;;;;;;19.33;9.55;;;;;;;-149.78;100.00;50275.88;5047392;28;20043;-67
2022/06/02 00:24:33;;;;;;;17.70;9.13;;;;;;;-149.78;100.00;50268.03;5045109;28;20043;-67
2022/06/02 00:27:38;;;;;;;16.33;9.40;;;;;;;-149.78;100.00;50279.78;5041675;28;20059;-67
2022/06/02 00:30:26;;;;;;;15.60;8.90;;;;;;;-149.78;100.00;50287.59;5042602;28;20056;-67
2022/06/02 00:33:33;;;;;;;15.30;8.85;;;;;;;-149.78;100.00;50303.25;5030923;28;20044;-67
2022/06/02 00:36:25;;;;;;;16.52;8.90;;;;;;;-149.78;100.00;50303.25;5003374;28;20080;-67
2022/06/02 00:39:16;;;;;;;18.42;9.55;;;;;;;-149.78;100.00;50334.53;5020847;28;20051;-67
2022/06/02 00:42:34;;;;;;;15.52;8.77;;;;;;;-149.78;100.00;50271.97;5006483;28;20286;-67
2022/06/02 00:45:20;;;;;;;16.88;9.18;;;;;;;-149.78;100.00;50287.59;5019856;28;20337;-67
2022/06/02 00:48:10;;;;;;;14.90;8.50;;;;;;;-149.78;100.00;50318.91;5008403;28;20087;-67
2022/06/02 00:51:14;;;;;;;15.00;8.20;;;;;;;-149.78;100.00;50291.50;4961685;28;20042;-67
2022/06/02 00:58:02;;;;;;;15.18;9.38;;;;;;;-149.78;100.00;50307.16;5081040;28;20043;-67
2022/06/02 01:00:55;;;;;;;17.23;8.27;;;;;;;-149.78;100.00;50320.84;5049712;28;20058;-67
2022/06/02 01:03:47;;;;;;;15.88;9.30;;;;;;;-149.78;100.00;50299.34;5070405;28;20656;-67
2022/06/02 01:06:23;;;;;;;16.50;9.18;;;;;;;-149.78;100.00;50313.03;5089621;28;20437;-67
2022/06/02 01:09:37;;;;;;;16.67;9.82;;;;;;;-149.78;100.00;50291.50;5099104;28;20035;-67
2022/06/02 01:12:36;;;;;;;20.27;10.07;;;;;;;-149.78;100.00;50334.53;5037525;28;20417;-67
2022/06/02 01:15:28;;;;;;;22.27;10.15;;;;;;;-149.78;100.00;50301.28;5023769;28;20461;-67
2022/06/02 01:18:32;;;;;;;19.40;9.68;;;;;;;-149.78;100.00;50291.50;5027657;28;20163;-67
2022/06/02 01:21:19;;;;;;;20.30;10.98;;;;;;;-149.78;100.00;50314.97;5039828;28;20750;-66
2022/06/02 01:24:25;;;;;;;20.15;11.48;;;;;;;-149.78;100.00;50330.63;5041463;28;20102;-66
2022/06/02 01:27:10;;;;;;;21.20;11.43;;;;;;;-149.78;100.00;50299.34;5025959;28;20492;-67
2022/06/02 01:30:37;;;;;;;22.40;11.63;;;;;;;-149.78;100.00;50326.72;4952291;28;20154;-67
2022/06/02 01:33:56;;;;;;;25.17;12.13;;;;;;;-149.78;100.00;50271.97;5039986;28;20076;-68
2022/06/02 01:36:55;;;;;;;24.35;12.43;;;;;;;-149.78;100.00;50303.25;5042542;28;20078;-68
2022/06/02 01:39:44;;;;;;;23.45;11.63;;;;;;;-149.78;100.00;50295.44;5038823;28;21180;-68
2022/06/02 01:42:56;;;;;;;25.15;12.23;;;;;;;-149.78;100.00;50287.59;5038072;28;20044;-68
2022/06/02 01:46:04;;;;;;;28.42;12.40;;;;;;;-149.78;100.00;50313.03;5083642;28;20047;-68
2022/06/02 01:48:59;;;;;;;29.63;13.75;;;;;;;-149.78;100.00;50311.06;5081840;28;20046;-68
2022/06/02 01:51:58;;;;;;;25.40;12.70;;;;;;;-149.78;100.00;50334.53;5081856;28;20071;-68
2022/06/02 01:55:18;;;;;;;30.40;12.80;;;;;;;-149.78;100.00;50334.53;5084747;28;20047;-67
2022/06/02 01:58:10;;;;;;;25.13;12.35;;;;;;;-149.78;100.00;50322.81;5075635;28;20047;-68
2022/06/02 02:00:37;;;;;;;29.15;13.52;;;;;;;-149.78;100.00;50287.59;5081482;28;20072;-67
2022/06/02 02:03:19;;;;;;;26.38;13.70;;;;;;;-149.78;100.00;50354.09;5080668;28;20155;-68
2022/06/02 02:06:07;;;;;;;28.33;14.13;;;;;;;-149.78;100.00;50307.16;5082013;28;21754;-68
2022/06/02 02:08:55;;;;;;;32.65;14.80;;;;;;;-149.78;100.00;50330.63;5081863;28;21054;-68
2022/06/02 02:11:48;;;;;;;27.65;13.95;;;;;;;-149.78;100.00;50295.44;5083377;28;20448;-68
2022/06/02 02:14:43;;;;;;;28.90;14.15;;;;;;;-149.78;100.00;50299.34;5100040;28;20108;-68
2022/06/02 02:18:07;;;;;;;27.30;14.25;;;;;;;-149.78;100.00;50305.22;5101583;28;20050;-68
2022/06/02 02:20:46;;;;;;;29.20;13.90;;;;;;;-149.78;100.00;50342.38;5018973;28;21467;-68
2022/06/02 02:23:44;;;;;;;32.05;14.57;;;;;;;-149.78;100.00;50314.97;5102897;28;20185;-68
2022/06/02 02:26:54;;;;;;;28.70;14.18;;;;;;;-149.78;100.00;50275.88;5102185;28;20129;-68
2022/06/02 02:29:44;;;;;;;27.25;13.50;;;;;;;-149.78;100.00;50342.38;5098327;28;20039;-68
2022/06/02 02:32:26;;;;;;;29.98;15.20;;;;;;;-149.78;100.00;50326.72;5087079;27;20511;-68
2022/06/02 02:35:28;;;;;;;27.42;14.02;;;;;;;-149.78;100.00;50287.59;5109264;27;20752;-67
2022/06/02 02:38:24;;;;;;;26.00;12.77;;;;;;;-149.78;100.00;50299.34;5104604;27;20073;-68
2022/06/02 02:40:57;;;;;;;29.13;13.90;;;;;;;-149.78;100.00;50318.91;5089504;27;20047;-68
2022/06/02 02:43:36;;;;;;;29.10;14.20;;;;;;;-149.78;100.00;50279.78;5088361;27;20038;-68
2022/06/02 02:46:04;;;;;;;28.27;13.98;;;;;;;-149.78;100.00;50324.75;5089484;27;20057;-68
2022/06/02 02:49:13;;;;;;;25.63;13.52;;;;;;;-149.78;100.00;50342.38;5106070;27;20108;-68
2022/06/02 02:51:57;;;;;;;29.95;14.88;;;;;;;-149.78;100.00;50350.19;5085631;27;20039;-68
2022/06/02 02:55:10;;;;;;;32.03;13.95;;;;;;;-149.78;100.00;50326.72;5095746;27;20126;-68
2022/06/02 02:57:53;;;;;;;25.80;14.00;;;;;;;-149.78;100.00;50299.34;5052213;27;20049;-68
2022/06/02 03:00:33;;;;;;;28.55;13.70;;;;;;;-149.78;100.00;50330.63;5107279;27;20039;-68
2022/06/02 03:03:40;;;;;;;31.85;13.43;;;;;;;-149.78;100.00;50326.72;5107199;27;20780;-68
2022/06/02 03:06:40;;;;;;;29.77;14.32;;;;;;;-149.78;100.00;50314.97;5089486;27;20711;-68
2022/06/02 03:09:40;;;;;;;27.23;13.07;;;;;;;-149.78;100.00;50320.84;5099494;27;20066;-68
2022/06/02 03:12:35;;;;;;;29.98;15.38;;;;;;;-149.78;100.00;50322.81;5106657;27;20099;-68
2022/06/02 03:15:47;;;;;;;35.95;16.25;;;;;;;-149.78;100.00;50350.19;5103133;27;20043;-68
2022/06/02 03:18:13;;;;;;;31.67;15.57;;;;;;;-149.78;100.00;50346.28;5107151;27;20031;-68
2022/06/02 03:20:56;;;;;;;34.30;16.60;;;;;;;-149.78;100.00;50322.81;5105592;27;20050;-68
2022/06/02 03:23:39;;;;;;;31.90;16.08;;;;;;;-149.78;100.00;50311.06;5106575;27;20154;-68
2022/06/02 03:26:38;;;;;;;34.33;15.98;;;;;;;-149.78;100.00;50303.25;5107854;27;20847;-68
2022/06/02 03:29:52;;;;;;;32.65;15.55;;;;;;;-149.78;100.00;50330.63;5049854;27;20054;-68
2022/06/02 03:32:55;;;;;;;33.00;15.68;;;;;;;-149.78;100.00;50342.38;5021391;28;20075;-68
2022/06/02 03:35:36;;;;;;;31.05;14.52;;;;;;;-149.78;100.00;50365.84;5022015;28;20041;-68
2022/06/02 03:38:17;;;;;;;37.40;16.67;;;;;;;-149.78;100.00;50346.28;5074553;27;20544;-68
2022/06/02 03:41:01;;;;;;;34.90;16.92;;;;;;;-149.78;100.00;50322.81;5104034;27;20031;-68
2022/06/02 03:43:48;;;;;;;35.28;16.80;;;;;;;-149.78;100.00;50334.53;5104293;27;20061;-68
2022/06/02 03:46:54;;;;;;;35.85;16.80;;;;;;;-149.78;100.00;50369.75;5091488;27;20096;-67
2022/06/02 03:49:34;;;;;;;34.30;16.13;;;;;;;-149.78;100.00;50314.97;5081098;27;20047;-68
2022/06/02 03:52:23;;;;;;;34.33;15.93;;;;;;;-149.78;100.00;50363.88;5108981;27;20047;-68
2022/06/02 03:55:52;;;;;;;29.88;15.18;;;;;;;-149.78;100.00;50322.81;5107212;27;20112;-73
2022/06/02 03:59:18;;;;;;;32.30;15.60;;;;;;;-149.78;100.00;50322.81;5105177;27;20054;-72
2022/06/02 04:01:54;;;;;;;35.05;16.63;;;;;;;-149.78;100.00;50344.31;5106376;27;20074;-72
2022/06/02 04:04:54;;;;;;;31.92;14.70;;;;;;;-149.78;100.00;50354.09;5099832;27;20426;-73
2022/06/02 04:07:43;;;;;;;;;;;;;;;-149.78;100.00;50322.81;5105771;27;20059;-73
2022/06/02 04:10:38;;;;;;;35.17;15.70;;;;;;;-149.78;100.00;50307.16;5063711;27;19976;-72
2022/06/02 04:13:59;;;;;;;36.42;16.55;;;;;;;-149.78;100.00;50338.44;5101830;27;20398;-72
2022/06/02 04:16:53;;;;;;;35.05;16.00;;;;;;;-149.78;100.00;50322.81;5104564;27;21313;-73
2022/06/02 04:23:06;;;;;;;35.45;16.25;;;;;;;-149.78;100.00;50326.72;5106653;27;20039;-72
2022/06/02 04:26:15;;;;;;;31.83;14.93;;;;;;;-149.78;100.00;50369.75;5085566;27;20119;-72
2022/06/02 04:28:54;;;;;;;32.95;15.65;;;;;;;-149.78;100.00;50379.53;5103706;27;20043;-72
2022/06/02 04:31:32;;;;;;;31.00;15.40;;;;;;;-149.78;100.00;50332.59;5082503;27;22049;-72
2022/06/02 04:34:43;;;;;;;32.28;14.93;;;;;;;-149.78;100.00;50342.38;5099469;27;20047;-72
2022/06/02 04:37:27;;;;;;;30.52;15.27;;;;;;;-149.78;100.00;50338.44;5103026;27;20070;-72
2022/06/02 04:40:06;;;;;;;31.02;15.30;;;;;;;-149.78;100.00;50334.53;5104399;27;20031;-72
2022/06/02 04:43:18;;;;;;;33.72;15.18;;;;;;;-149.78;100.00;50354.09;5102517;27;20043;-72
2022/06/02 04:45:58;;;;;;;31.63;15.23;;;;;;;-149.78;100.00;50371.69;5084225;27;20039;-73
2022/06/02 04:48:31;;;;;;;31.25;14.73;;;;;;;-149.78;100.00;50322.81;5105375;27;20407;-72
2022/06/02 04:51:23;;;;;;;33.25;16.35;;;;;;;-149.78;100.00;50322.81;5103948;27;20046;-72
2022/06/02 04:54:24;;;;;;;38.80;16.73;;;;;;;-149.78;100.00;50338.44;5100932;27;20050;-73
2022/06/02 04:57:39;;;;;;;32.20;15.18;;;;;;;-149.78;100.00;50320.84;5087704;27;20035;-72
2022/06/02 05:00:57;;;;;;;32.13;15.20;;;;;;;-149.78;100.00;50311.06;5088853;27;20497;-73
2022/06/02 05:03:56;;;;;;;32.50;15.43;;;;;;;-149.78;100.00;50320.84;5052998;27;20043;-72
2022/06/02 05:06:44;;;;;;;32.80;15.30;;;;;;;-149.78;100.00;50322.81;5087777;27;20074;-72
2022/06/02 05:09:48;;;;;;;31.92;15.90;;;;;;;-149.78;100.00;50295.44;5105535;27;20039;-72
2022/06/02 05:12:31;;;;;;;35.58;16.52;;;;;;;-149.78;100.00;50305.22;5084560;27;20043;-72
2022/06/02 05:15:42;;;;;;;31.85;15.30;;;;;;;-149.78;100.00;50299.34;5088555;27;20625;-73
2022/06/02 05:18:56;;;;;;;34.67;17.17;;;;;;;-149.78;100.00;50338.44;5107054;27;20363;-73
2022/06/02 05:21:33;;;;;;;30.95;15.90;;;;;;;-149.78;100.00;50338.44;5105145;27;20027;-72
2022/06/02 05:24:08;;;;;;;32.03;14.57;;;;;;;-149.78;100.00;50350.19;5083544;27;20462;-72
2022/06/02 05:27:01;;;;;;;26.10;14.23;;;;;;;-149.78;100.00;50350.19;5089480;27;20035;-73
2022/06/02 05:29:44;;;;;;;31.15;14.63;;;;;;;-149.78;100.00;50291.50;5085779;27;20038;-72
2022/06/02 05:32:42;;;;;;;29.98;16.10;;;;;;;-149.78;100.00;50307.16;5101513;27;20043;-73
2022/06/02 05:35:16;;;;;;;36.42;18.40;;;;;;;-149.78;100.00;50322.81;5083404;27;20046;-72
2022/06/02 05:38:14;;;;;;;42.03;20.25;;;;;;;-149.78;100.00;50291.50;5105609;27;20027;-73
2022/06/02 05:40:45;;;;;;;33.50;16.83;;;;;;;-149.78;100.00;50334.53;5083735;28;20062;-72
2022/06/02 05:43:36;;;;;;;34.47;16.73;;;;;;;-149.78;100.00;50275.88;5105096;27;20033;-72
2022/06/02 05:46:34;;;;;;;33.55;16.05;;;;;;;-149.78;100.00;50326.72;5102834;27;20038;-73
2022/06/02 05:49:14;;;;;;;29.55;14.48;;;;;;;-149.78;100.00;50311.06;5106025;27;20031;-73
2022/06/02 05:51:45;;;;;;;38.53;18.95;;;;;;;-149.78;100.00;50285.66;5103717;28;20019;-71
2022/06/02 05:54:15;;;;;;;;;;;;;;;-149.78;100.00;50256.31;5085295;28;20059;-74
2022/06/02 05:57:00;;;;;;;35.38;17.48;;;;;;;-149.78;100.00;50232.84;5103445;28;19924;-71
2022/06/02 05:59:47;;;;;;;34.08;16.50;;;;;;;-149.78;100.00;50248.50;5100689;28;20466;-72
2022/06/02 06:02:25;;;;;;;36.80;17.83;;;;;;;-149.78;100.00;50256.31;5105285;28;20041;-72
2022/06/02 06:05:15;;;;;;;33.20;17.10;;;;;;;-149.78;100.00;50248.50;5083192;28;21312;-72
2022/06/02 06:07:48;;;;;;;32.00;15.55;;;;;;;-149.78;100.00;50248.50;5088273;27;20102;-68
2022/06/02 06:10:20;;;;;;;28.77;15.30;;;;;;;-149.78;100.00;50273.91;5105432;27;20152;-70
2022/06/02 06:13:08;;;;;;;28.92;15.75;;;;;;;-149.78;100.00;50252.41;5107336;27;20062;-69
2022/06/02 06:16:22;;;;;;;30.90;15.80;;;;;;;-149.78;100.00;50248.50;5107216;27;20545;-68
2022/06/02 06:19:08;;;;;;;30.70;16.55;;;;;;;-149.78;100.00;50250.44;5104175;27;20050;-68
2022/06/02 06:22:10;;;;;;;30.00;15.52;;;;;;;-149.78;100.00;50248.50;5106628;27;20038;-68
2022/06/02 06:24:58;;;;;;;31.25;15.88;;;;;;;-149.78;100.00;50248.50;5086270;27;20039;-68
2022/06/02 06:27:49;;;;;;;27.80;14.30;;;;;;;-149.78;100.00;50201.56;5108411;27;20206;-69
2022/06/02 06:30:34;;;;;;;27.10;14.27;;;;;;;-149.78;100.00;50217.19;5070980;27;20386;-69
2022/06/02 06:33:17;;;;;;;26.83;15.05;;;;;;;-149.78;100.00;50228.94;5086417;27;20049;-69
2022/06/02 06:36:18;;;;;;;20.75;12.10;;;;;;;-149.78;100.00;50150.72;5088677;27;20108;-69
2022/06/02 06:38:59;;;;;;;19.95;11.85;;;;;;;-149.78;100.00;50189.81;5085183;27;20119;-67
2022/06/02 06:42:00;;;;;;;19.58;12.38;;;;;;;-149.78;100.00;50168.31;5105430;27;20035;-67
2022/06/02 06:44:43;;;;;;;19.15;12.05;;;;;;;-149.78;100.00;50142.88;5107866;27;20031;-67
2022/06/02 06:47:30;;;;;;;18.60;11.95;;;;;;;-149.78;100.00;50121.38;5107372;27;20062;-67
2022/06/02 06:50:19;;;;;;;18.05;11.30;;;;;;;-149.78;100.00;50103.78;5101325;27;20062;-67
2022/06/02 06:53:15;;;;;;;17.25;11.60;;;;;;;-149.78;100.00;50084.22;5084902;27;20039;-67
2022/06/02 06:56:09;;;;;;;16.55;10.85;;;;;;;-149.78;100.00;50062.72;5113553;27;20062;-68
2022/06/02 06:59:03;;;;;;;15.48;10.32;;;;;;;-149.78;100.00;50080.31;5105753;27;20065;-67
2022/06/02 07:01:44;;;;;;;15.63;10.75;;;;;;;-149.78;100.00;50062.72;5082682;27;20062;-67
2022/06/02 07:04:48;;;;;;;15.18;10.63;;;;;;;-149.78;100.00;50041.19;5105338;27;20683;-68
2022/06/02 07:07:29;;;;;;;21.77;11.05;;;;;;;-149.78;100.00;50037.28;5086760;27;20547;-67
2022/06/02 07:10:26;;;;;;;16.67;10.30;;;;;;;-149.78;100.00;50009.91;5106723;27;20043;-67
2022/06/02 07:13:18;;;;;;;11.80;8.55;;;;;;;-149.78;100.00;49990.34;5106403;27;20043;-68
2022/06/02 07:15:50;;;;;;;11.90;8.77;;;;;;;-149.78;100.00;50019.69;5106649;27;20031;-67
2022/06/02 07:18:55;;;;;;;11.27;7.60;;;;;;;-149.78;100.00;49955.16;5088181;27;20050;-67
2022/06/02 07:21:28;;;;;;;10.18;7.55;;;;;;;-149.78;88.40;49986.44;5106735;27;20039;-68
2022/06/02 07:24:24;;;;;;;10.13;8.13;;;;;;;-149.78;86.99;49962.97;5105827;27;20027;-67
2022/06/02 07:27:28;;;;;;;10.00;8.38;;;;;;;-149.78;81.88;49955.16;5055517;27;20162;-67
2022/06/02 07:30:20;;;;;;;9.70;7.95;;;;;;;-149.78;73.65;49970.78;5089840;27;20610;-67
2022/06/02 07:33:11;;;;;;;12.93;8.35;;;;;;;-149.78;69.95;49935.59;5107072;27;20165;-67
2022/06/02 07:35:49;;;;;;;10.45;8.38;;;;;;;-149.78;63.98;49955.16;5106915;27;20027;-67
2022/06/02 07:38:22;;;;;;;10.15;8.02;;;;;;;-149.78;59.68;49916.03;5106010;27;20039;-67
2022/06/02 07:40:57;;;;;;;10.38;8.38;;;;;;;-149.78;55.76;49873.03;5087820;27;20031;-67
2022/06/02 07:43:41;;;;;;;10.13;7.15;;;;;;;-149.78;55.15;49873.03;5088395;27;20088;-67
2022/06/02 07:46:25;;;;;;;10.73;8.00;;;;;;;-149.78;55.26;49904.31;5104728;27;20038;-67
2022/06/02 07:48:59;;;;;;;10.57;8.05;;;;;;;-149.78;51.63;49894.53;5087432;27;20039;-67
2022/06/02 07:51:35;;;;;;;11.23;8.55;;;;;;;-149.78;51.78;49935.59;5106129;27;21349;-67
2022/06/02 07:54:16;;;;;;;11.35;7.93;;;;;;;-149.78;54.77;49884.75;5088585;27;20041;-67
2022/06/02 07:57:04;;;;;;;9.45;8.02;;;;;;;-149.78;48.84;49888.66;5086019;27;20038;-67
2022/06/02 07:59:42;;;;;;;9.52;8.05;;;;;;;-149.78;51.64;49880.84;5105150;27;20027;-67
2022/06/02 08:02:14;;;;;;;8.75;6.63;;;;;;;-149.78;48.81;49873.03;5105819;27;20375;-67
2022/06/02 08:05:17;;;;;;;11.15;8.10;;;;;;;-149.78;51.95;49900.41;5105605;27;20050;-67
2022/06/02 08:08:04;;;;;;;8.25;6.85;;;;;;;-149.78;50.23;49896.50;5104520;27;20047;-67
2022/06/02 08:10:47;;;;;;;9.95;7.65;;;;;;;-149.78;48.18;49900.41;5104177;27;20068;-68
2022/06/02 08:13:37;;;;;;;9.80;7.00;;;;;;;-149.78;48.36;49853.47;5084574;27;20054;-68
2022/06/02 08:16:12;;;;;;;11.02;7.30;;;;;;;-149.78;46.06;49882.81;5104827;27;20041;-67
2022/06/02 08:18:44;;;;;;;7.95;6.80;;;;;;;-149.78;45.67;49880.84;5105285;27;21069;-67
2022/06/02 08:21:38;;;;;;;11.63;7.80;;;;;;;-149.78;45.75;49841.72;5106017;27;20067;-68
2022/06/02 08:24:13;;;;;;;11.02;7.72;;;;;;;-149.78;43.52;49794.81;5085267;27;20034;-67
2022/06/02 08:26:58;;;;;;;9.07;7.43;;;;;;;-149.78;44.02;49853.47;5104104;27;20042;-67
2022/06/02 08:29:38;;;;;;;9.95;7.07;;;;;;;-149.78;43.73;49880.84;5087326;27;20491;-67
2022/06/02 08:32:38;;;;;;;10.27;6.30;;;;;;;-149.78;43.61;49869.13;5083306;27;20035;-67
2022/06/02 08:35:13;;;;;;;10.57;7.10;;;;;;;-149.78;43.48;49849.56;5105233;27;20135;-67
2022/06/02 08:38:00;;;;;;;10.00;7.43;;;;;;;-149.78;41.68;49873.03;5105844;27;20055;-68
2022/06/02 08:40:38;;;;;;;9.00;7.60;;;;;;;-149.78;43.04;49857.38;5105457;27;20038;-67
2022/06/02 08:43:30;;;;;;;7.80;6.70;;;;;;;-149.78;41.73;49869.13;5087180;27;20035;-67
2022/06/02 08:46:14;;;;;;;;;;;;;;;-149.78;41.88;49878.88;5066539;27;20050;-67
2022/06/02 08:48:57;;;;;;;8.00;6.72;;;;;;;-149.78;42.18;49845.66;5105351;27;19915;-67
2022/06/02 08:51:26;;;;;;;9.45;7.68;;;;;;;-149.78;40.94;49822.19;5106430;27;20088;-67
2022/06/02 08:54:24;;;;;;;8.60;7.22;;;;;;;-149.78;41.73;49863.25;5103619;27;20188;-68
2022/06/02 08:57:26;;;;;;;10.00;6.78;;;;;;;-149.78;41.29;49857.38;5104232;27;20019;-68
2022/06/02 09:00:03;;;;;;;7.50;6.72;;;;;;;-149.78;39.64;49845.66;5102333;27;20054;-68
2022/06/02 09:03:05;;;;;;;6.82;6.13;;;;;;;-149.78;37.74;49796.75;5105734;27;20121;-68
2022/06/02 09:06:13;;;;;;;7.90;6.93;;;;;;;-149.78;45.12;49925.81;5106496;27;20067;-67
2022/06/02 09:09:13;;;;;;;9.77;7.72;;;;;;;-149.78;44.65;49865.19;5088831;27;20054;-68
2022/06/02 09:12:04;;;;;;;9.50;6.53;;;;;;;-149.78;42.98;49884.75;5102444;27;20575;-68
2022/06/02 09:14:55;;;;;;;8.45;6.03;;;;;;;-149.78;43.69;49880.84;5104343;27;20129;-68
2022/06/02 09:17:35;;;;;;;7.93;6.28;;;;;;;-149.78;45.27;49923.88;5085784;27;20035;-67
2022/06/02 09:20:12;;;;;;;8.32;6.43;;;;;;;-149.78;42.79;49931.69;5104828;27;20051;-68
2022/06/02 09:22:47;;;;;;;9.48;6.20;;;;;;;-149.78;45.67;49933.66;5066723;27;20079;-68
2022/06/02 09:25:21;;;;;;;7.60;6.07;;;;;;;-149.78;48.91;49962.97;5084807;27;20050;-67
2022/06/02 09:28:40;;;;;;;8.45;6.28;;;;;;;-149.78;52.64;49968.84;5101581;27;20043;-67
2022/06/02 09:31:20;;;;;;;9.85;7.20;;;;;;;-149.78;46.94;49953.19;5082883;27;20051;-68
2022/06/02 09:34:14;;;;;;;14.73;7.15;;;;;;;-149.78;45.25;49912.13;5082028;27;20054;-67
2022/06/02 09:36:43;;;;;;;;;;;;;;;-149.78;45.20;49912.13;5062957;27;20138;-68
2022/06/02 09:39:30;;;;;;;7.95;6.05;;;;;;;-149.78;42.67;49892.56;5082221;27;19916;-68
2022/06/02 09:42:08;;;;;;;7.55;5.40;;;;;;;-149.78;41.64;49835.88;5103546;27;20050;-68
2022/06/02 09:44:41;;;;;;;7.65;6.10;;;;;;;-149.78;43.41;49902.34;5103471;27;20031;-68
2022/06/02 09:47:44;;;;;;;9.90;6.45;;;;;;;-149.78;40.52;49841.72;5084352;27;20054;-68
2022/06/02 09:50:37;;;;;;;6.88;6.18;;;;;;;-149.78;39.92;49851.50;5104926;27;20176;-68
2022/06/02 09:53:16;;;;;;;8.75;6.50;;;;;;;-149.78;38.64;49863.25;5101269;27;20135;-67
2022/06/02 09:56:39;;;;;;;6.72;6.03;;;;;;;-149.78;38.61;49810.44;5099214;28;20085;-68
2022/06/02 09:59:48;;;;;;;7.18;5.57;;;;;;;-149.78;37.86;49841.72;5032685;28;20052;-68
2022/06/02 10:02:39;;;;;;;9.05;5.85;;;;;;;-149.78;38.82;49888.66;5002027;28;20393;-68
2022/06/02 10:05:44;;;;;;;7.28;6.00;;;;;;;-149.78;39.92;49888.66;5000975;28;20045;-68
2022/06/02 10:09:06;;;;;;;5.53;4.93;;;;;;;-149.78;37.49;49865.19;5103722;28;20057;-68
2022/06/02 10:15:08;;;;;;;8.07;6.88;;;;;;;-149.78;38.99;49912.13;5085718;28;20126;-68
2022/06/02 10:17:59;;;;;;;6.57;5.25;;;;;;;-149.78;44.17;49935.59;5100214;28;20031;-67
2022/06/02 10:20:57;;;;;;;5.50;4.78;;;;;;;-149.78;42.61;49972.75;5080138;28;20118;-68
2022/06/02 10:23:45;;;;;;;5.07;4.38;;;;;;;-149.78;43.75;49949.28;5103200;28;20120;-68
2022/06/02 10:27:14;;;;;;;6.80;5.30;;;;;;;-149.78;42.38;49982.53;5101982;27;20036;-68
2022/06/02 10:29:56;;;;;;;8.50;6.07;;;;;;;-149.78;43.94;49953.19;5044773;28;20074;-68
2022/06/02 10:32:36;;;;;;;7.43;4.97;;;;;;;-149.78;44.36;49951.25;5102545;28;20032;-68
2022/06/02 10:35:04;;;;;;;6.13;4.70;;;;;;;-149.78;45.56;49939.50;5103305;28;20046;-68
2022/06/02 10:38:00;;;;;;;7.53;5.63;;;;;;;-149.78;42.21;49959.06;5082056;28;20035;-68
2022/06/02 10:40:45;;;;;;;8.88;5.00;;;;;;;-149.78;42.64;49966.88;5082687;28;20046;-68
2022/06/02 10:43:55;;;;;;;7.82;5.40;;;;;;;-149.78;45.19;49962.97;5098677;28;20082;-68
2022/06/02 10:46:53;;;;;;;7.63;6.05;;;;;;;-149.78;43.57;49939.50;5095042;28;20047;-68
2022/06/02 10:49:33;;;;;;;8.02;5.45;;;;;;;-149.78;46.31;49947.34;5093934;28;20165;-68
2022/06/02 10:52:04;;;;;;;8.10;5.68;;;;;;;-149.78;45.40;49998.19;5101337;27;20030;-68
2022/06/02 10:54:52;;;;;;;9.15;6.63;;;;;;;-149.78;47.50;49953.19;5086476;27;20520;-68
2022/06/02 10:57:19;;;;;;;8.10;6.32;;;;;;;-149.78;49.59;49951.25;5106867;27;20788;-68
2022/06/02 11:00:31;;;;;;;10.57;7.28;;;;;;;-149.78;47.50;49998.19;5105414;27;20459;-69
2022/06/02 11:03:42;;;;;;;10.98;6.45;;;;;;;-149.78;49.09;49996.22;5105285;27;20219;-68
2022/06/02 11:06:28;;;;;;;8.05;5.82;;;;;;;-149.78;52.63;50027.50;5105942;27;20051;-68
2022/06/02 11:09:31;;;;;;;9.07;6.60;;;;;;;-149.78;51.00;50060.75;5036909;28;20040;-67
2022/06/02 11:12:54;;;;;;;9.35;6.38;;;;;;;-149.78;53.42;50060.75;5027199;28;20750;-67
2022/06/02 11:15:30;;;;;;;10.13;6.97;;;;;;;-149.78;54.45;50013.81;5035072;28;20040;-67
2022/06/02 11:18:52;;;;;;;9.65;6.07;;;;;;;-149.78;55.36;50009.91;4997154;28;20150;-68
2022/06/02 11:21:59;;;;;;;9.77;6.35;;;;;;;-149.78;55.07;50086.19;4995070;28;20096;-67
2022/06/02 11:25:04;;;;;;;6.85;5.28;;;;;;;-149.78;56.48;50037.28;4991770;28;20092;-67
2022/06/02 11:28:08;;;;;;;6.15;4.95;;;;;;;-149.78;54.40;50013.81;4982734;28;20876;-68
2022/06/02 11:31:31;;;;;;;7.03;5.05;;;;;;;-149.78;50.81;50023.59;4965353;28;20100;-68
2022/06/02 11:34:46;;;;;;;8.30;4.13;;;;;;;-149.78;52.56;50002.09;4963322;28;20038;-68
2022/06/02 11:37:58;;;;;;;5.82;4.70;;;;;;;-149.78;49.63;50007.94;4984322;28;20656;-68
2022/06/02 11:40:36;;;;;;;6.80;4.32;;;;;;;-149.78;50.11;50017.72;4958999;28;20046;-68
2022/06/02 11:43:37;;;;;;;7.05;4.20;;;;;;;-149.78;49.32;50017.72;4976749;28;21007;-68
2022/06/02 11:46:29;;;;;;;6.70;4.05;;;;;;;-149.78;50.45;50025.56;4976701;28;20041;-68
2022/06/02 11:49:41;;;;;;;4.93;3.50;;;;;;;-149.78;50.42;50017.72;4980247;28;20697;-68
2022/06/02 11:52:59;;;;;;;6.43;4.13;;;;;;;-149.78;48.87;50021.63;4983186;28;20049;-67
2022/06/02 11:55:40;;;;;;;4.35;3.53;;;;;;;-149.78;48.63;49996.22;4955547;28;21414;-68
2022/06/02 11:58:49;;;;;;;6.53;3.70;;;;;;;-149.78;52.50;50045.09;4969337;28;21957;-68
2022/06/02 12:02:11;;;;;;;8.23;3.72;;;;;;;-149.78;54.18;50031.41;4999871;28;20490;-69
2022/06/02 12:04:49;;;;;;;4.85;3.80;;;;;;;-149.78;51.24;50002.09;5001695;28;20131;-68
2022/06/02 12:07:59;;;;;;;5.88;4.60;;;;;;;-149.78;50.42;50041.19;5002393;28;20121;-68
2022/06/02 12:10:49;;;;;;;7.13;4.00;;;;;;;-149.78;50.42;50017.72;4958217;28;20775;-68
2022/06/02 12:13:44;;;;;;;6.03;3.83;;;;;;;-149.78;52.38;50019.69;4962410;28;20050;-68
2022/06/02 12:16:45;;;;;;;6.68;4.30;;;;;;;-149.78;51.04;50013.81;4962148;28;20097;-68
2022/06/02 12:19:20;;;;;;;6.03;3.55;;;;;;;-149.78;51.08;50013.81;4994631;28;20054;-68
2022/06/02 12:22:05;;;;;;;5.00;3.45;;;;;;;-149.78;51.83;50009.91;4980637;28;20049;-69
2022/06/02 12:25:12;;;;;;;4.68;3.60;;;;;;;-149.78;52.59;50017.72;4963994;28;20049;-69
2022/06/02 12:28:19;;;;;;;5.57;3.50;;;;;;;-149.78;49.19;50025.56;4965585;28;20158;-69
2022/06/02 12:31:24;;;;;;;4.70;3.60;;;;;;;-149.78;50.96;50013.81;4975514;28;20054;-69
2022/06/02 12:34:19;;;;;;;4.00;3.60;;;;;;;-149.78;46.51;50009.91;5043735;28;20036;-69
2022/06/02 12:37:04;;;;;;;3.90;3.17;;;;;;;-149.78;48.51;49994.25;5040916;28;20919;-69
2022/06/02 12:40:07;;;;;;;4.15;3.33;;;;;;;-149.78;46.73;49959.06;5006515;28;20078;-69
2022/06/02 12:43:06;;;;;;;4.88;3.60;;;;;;;-149.78;45.38;49984.50;5038792;28;20520;-69
2022/06/02 12:46:07;;;;;;;6.43;3.72;;;;;;;-149.78;44.20;49939.50;5040806;28;20048;-69
2022/06/02 12:49:33;;;;;;;4.32;3.30;;;;;;;-149.78;44.66;49959.06;5038082;28;20051;-69
2022/06/02 12:52:53;;;;;;;4.03;3.05;;;;;;;-149.78;46.63;50004.03;5038606;28;20052;-67
2022/06/02 12:56:10;;;;;;;3.80;3.08;;;;;;;-149.78;44.38;50043.16;5021921;28;20051;-73
2022/06/02 12:59:33;;;;;;;4.85;4.30;;;;;;;-149.78;46.62;50054.88;5029790;28;20468;-74
2022/06/02 13:02:15;;;;;;;7.03;4.18;;;;;;;-149.78;46.44;50031.41;5040436;28;21488;-73
2022/06/02 13:04:56;;;;;;;3.85;3.00;;;;;;;-149.78;51.20;49998.19;5037012;28;20636;-73
2022/06/02 13:08:30;;;;;;;4.00;2.72;;;;;;;-149.78;45.85;50019.69;5041783;28;20147;-73
2022/06/02 13:11:32;;;;;;;6.47;3.97;;;;;;;-149.78;44.23;50011.88;5023455;28;20064;-73